Detall de PIREP

Printer-friendly versionPDF version

[2008/09/02 07:14:00]
Flight IATA:CT3127
Pilot Number:011
Company ICAO:CAT
Aircraft Type:F28/A
PAX:85
Departing Airport: LEZG
Destination Airport: LFMP
Alternate Airport:LFBO
Online: VATSIM
Route:PONEN R870 SEROX H110 BGR A27 KANIG
Flight Level:FL240
No Slew and time accel
No pause
Crash detect
Detect pilot in Cockpit between each 30 and 45 minutes
07:14 Zero fuel Weight: 60437 Lbs, Fuel Weight: 9140 Lbs
07:14 VATSIM:LEZG 020700Z 13007KT 9000 BKN070 21/19 Q1016
07:14 VATSIM:LFMP 020700Z 35004KT CAVOK 22/15 Q1016 NOSIG
07:15 Parking Brakes off
07:31 Take-off
07:31 Take off Weight: 68906 Lbs
07:31 Wind: 133 @ 007 Knots Heading: 120
07:31 POS N41 39 45 W001 01 30
07:31 Gear Up: 151 Knots
07:31 Flaps:2 at 151 Knots
07:32 Flaps:1 at 237 Knots
07:32 Flaps:0 at 268 Knots
07:43 TOC
07:43 Fuel Weight: 6775 Lb
07:46 Wind:090@010 Knots Heading: 061 Ground Spe
ed: 412 Knots Altitude 23999 ft
08:00 TOD
08:00 Fuel Weight: 5538 Lb
08:01 Wind:332@000 Knots Heading: 080 Ground Speed: 414 Knots Altitude 22132 ft
08:12 Flaps:1 at 242 Knots
08:13 Flaps:2 at 208 Knots
08:14 Flaps:3 at 192 Knots
08:14 Flaps:4 at 164 Knots
08:14 Gear Down: 161 Knots
08:15 Flaps:3 at 142 Knots
08:15 Gear Up: 143 Knots
08:16 Wind:350@005 Knots Heading: 266 Ground Speed: 166 Knots Altitude 2893 ft
08:22 Flaps:4 at 164 Knots
08:22 Gear Down: 164 Knots
08:22 Flaps:5 at 151 Knots
08:24 TouchDown:Rate -252 ft/min Speed: 101 Knots
08:24 VATSIM:LFMP 020700Z 35004KT CAVOK 22/15 Q1016 NOSIG
08:24 Land
08:24 Wind:352@004 Knots
08:24 Heading: 328
08:24 Flight Duration: 00:53
08:24 Landing Weight: 64644 Lbs
08:24 POS N42 45 00 E002 51 54
08:30 Parking brakes on
08:30 Block to Block Duration: 01:15
08:30 Final Fuel: 3994 Lbls
08:30
Spent Fuel: 5145 Lbls
08:30 Flight Length: 77 NM
08:30 TOD Land Length: 15 NM

Exportar CSV

Powered by Drupal - Modified by Danger4k